sensor_id;sensor_type;location;lat;lon;timestamp;P1;durP1;ratioP1;P2;durP2;ratioP2
76786;SDS011;65739;51.482;5.702;2023-04-25T00:01:20;16.33;;;3.95;;
76786;SDS011;65739;51.482;5.702;2023-04-25T00:03:46;11.82;;;3.30;;
76786;SDS011;65739;51.482;5.702;2023-04-25T00:06:12;14.68;;;3.88;;
76786;SDS011;65739;51.482;5.702;2023-04-25T00:08:38;12.98;;;3.30;;
76786;SDS011;65739;51.482;5.702;2023-04-25T00:11:04;8.95;;;3.53;;
76786;SDS011;65739;51.482;5.702;2023-04-25T00:13:29;9.93;;;2.95;;
76786;SDS011;65739;51.482;5.702;2023-04-25T00:15:55;14.85;;;4.05;;
76786;SDS011;65739;51.482;5.702;2023-04-25T00:18:25;17.88;;;3.22;;
76786;SDS011;65739;51.482;5.702;2023-04-25T00:20:53;11.45;;;3.08;;
76786;SDS011;65739;51.482;5.702;2023-04-25T00:23:19;14.45;;;3.30;;
76786;SDS011;65739;51.482;5.702;2023-04-25T00:25:44;9.88;;;3.45;;
76786;SDS011;65739;51.482;5.702;2023-04-25T00:28:11;15.48;;;3.42;;
76786;SDS011;65739;51.482;5.702;2023-04-25T00:30:38;17.15;;;3.75;;
76786;SDS011;65739;51.482;5.702;2023-04-25T00:33:04;13.93;;;3.50;;
76786;SDS011;65739;51.482;5.702;2023-04-25T00:35:29;10.43;;;2.80;;
76786;SDS011;65739;51.482;5.702;2023-04-25T00:37:55;10.27;;;3.28;;
76786;SDS011;65739;51.482;5.702;2023-04-25T00:40:20;9.68;;;3.33;;
76786;SDS011;65739;51.482;5.702;2023-04-25T00:42:46;13.43;;;3.28;;
76786;SDS011;65739;51.482;5.702;2023-04-25T00:45:13;9.23;;;3.15;;
76786;SDS011;65739;51.482;5.702;2023-04-25T00:47:42;13.77;;;3.00;;
76786;SDS011;65739;51.482;5.702;2023-04-25T00:50:09;10.35;;;3.53;;
76786;SDS011;65739;51.482;5.702;2023-04-25T00:52:35;14.00;;;3.63;;
76786;SDS011;65739;51.482;5.702;2023-04-25T00:55:03;15.20;;;3.15;;
76786;SDS011;65739;51.482;5.702;2023-04-25T00:57:29;11.95;;;3.42;;
76786;SDS011;65739;51.482;5.702;2023-04-25T00:59:54;11.52;;;3.45;;
76786;SDS011;65739;51.482;5.702;2023-04-25T01:02:20;11.35;;;3.10;;
76786;SDS011;65739;51.482;5.702;2023-04-25T01:04:47;13.82;;;3.20;;
76786;SDS011;65739;51.482;5.702;2023-04-25T01:07:13;12.70;;;3.30;;
76786;SDS011;65739;51.482;5.702;2023-04-25T01:09:40;11.75;;;4.03;;
76786;SDS011;65739;51.482;5.702;2023-04-25T01:12:06;19.05;;;3.47;;
76786;SDS011;65739;51.482;5.702;2023-04-25T01:14:31;12.00;;;3.20;;
76786;SDS011;65739;51.482;5.702;2023-04-25T01:16:57;12.35;;;3.20;;
76786;SDS011;65739;51.482;5.702;2023-04-25T01:19:23;19.65;;;4.88;;
76786;SDS011;65739;51.482;5.702;2023-04-25T01:21:49;10.75;;;3.65;;
76786;SDS011;65739;51.482;5.702;2023-04-25T01:24:16;19.48;;;3.17;;
76786;SDS011;65739;51.482;5.702;2023-04-25T01:26:42;11.35;;;3.65;;
76786;SDS011;65739;51.482;5.702;2023-04-25T01:29:14;17.40;;;3.47;;
76786;SDS011;65739;51.482;5.702;2023-04-25T01:31:43;16.17;;;3.42;;
76786;SDS011;65739;51.482;5.702;2023-04-25T01:34:10;14.65;;;3.30;;
76786;SDS011;65739;51.482;5.702;2023-04-25T01:36:36;13.43;;;3.63;;
76786;SDS011;65739;51.482;5.702;2023-04-25T01:39:01;16.98;;;3.60;;
76786;SDS011;65739;51.482;5.702;2023-04-25T01:41:27;18.58;;;3.92;;
76786;SDS011;65739;51.482;5.702;2023-04-25T01:43:53;12.00;;;3.67;;
76786;SDS011;65739;51.482;5.702;2023-04-25T01:46:19;14.30;;;3.88;;
76786;SDS011;65739;51.482;5.702;2023-04-25T01:48:45;15.63;;;3.50;;
76786;SDS011;65739;51.482;5.702;2023-04-25T01:51:11;11.68;;;4.28;;
76786;SDS011;65739;51.482;5.702;2023-04-25T01:53:37;16.38;;;4.00;;
76786;SDS011;65739;51.482;5.702;2023-04-25T01:56:03;17.20;;;4.25;;
76786;SDS011;65739;51.482;5.702;2023-04-25T01:58:29;21.08;;;4.07;;
76786;SDS011;65739;51.482;5.702;2023-04-25T02:00:55;18.23;;;4.00;;
76786;SDS011;65739;51.482;5.702;2023-04-25T02:03:20;23.00;;;4.97;;
76786;SDS011;65739;51.482;5.702;2023-04-25T02:05:46;24.65;;;4.88;;
76786;SDS011;65739;51.482;5.702;2023-04-25T02:08:11;16.10;;;4.57;;
76786;SDS011;65739;51.482;5.702;2023-04-25T02:10:37;15.95;;;4.95;;
76786;SDS011;65739;51.482;5.702;2023-04-25T02:13:02;20.25;;;5.28;;
76786;SDS011;65739;51.482;5.702;2023-04-25T02:15:30;21.05;;;5.72;;
76786;SDS011;65739;51.482;5.702;2023-04-25T02:17:55;17.63;;;5.00;;
76786;SDS011;65739;51.482;5.702;2023-04-25T02:20:21;14.27;;;4.68;;
76786;SDS011;65739;51.482;5.702;2023-04-25T02:22:48;21.00;;;4.15;;
76786;SDS011;65739;51.482;5.702;2023-04-25T02:25:14;20.70;;;4.78;;
76786;SDS011;65739;51.482;5.702;2023-04-25T02:27:40;17.27;;;4.43;;
76786;SDS011;65739;51.482;5.702;2023-04-25T02:30:06;12.93;;;4.18;;
76786;SDS011;65739;51.482;5.702;2023-04-25T02:32:32;21.98;;;4.65;;
76786;SDS011;65739;51.482;5.702;2023-04-25T02:34:59;15.20;;;4.97;;
76786;SDS011;65739;51.482;5.702;2023-04-25T02:37:28;16.33;;;5.05;;
76786;SDS011;65739;51.482;5.702;2023-04-25T02:39:54;14.60;;;4.35;;
76786;SDS011;65739;51.482;5.702;2023-04-25T02:42:20;16.17;;;4.47;;
76786;SDS011;65739;51.482;5.702;2023-04-25T02:44:45;18.80;;;4.78;;
76786;SDS011;65739;51.482;5.702;2023-04-25T02:47:11;20.92;;;4.72;;
76786;SDS011;65739;51.482;5.702;2023-04-25T02:49:36;18.75;;;4.47;;
76786;SDS011;65739;51.482;5.702;2023-04-25T02:52:02;13.77;;;4.32;;
76786;SDS011;65739;51.482;5.702;2023-04-25T02:54:27;19.05;;;4.57;;
76786;SDS011;65739;51.482;5.702;2023-04-25T02:56:53;13.13;;;4.15;;
76786;SDS011;65739;51.482;5.702;2023-04-25T02:59:18;19.85;;;4.97;;
76786;SDS011;65739;51.482;5.702;2023-04-25T03:01:44;21.42;;;4.65;;
76786;SDS011;65739;51.482;5.702;2023-04-25T03:04:10;14.32;;;4.35;;
76786;SDS011;65739;51.482;5.702;2023-04-25T03:06:35;23.77;;;5.15;;
76786;SDS011;65739;51.482;5.702;2023-04-25T03:09:01;18.35;;;4.80;;
76786;SDS011;65739;51.482;5.702;2023-04-25T03:11:26;15.95;;;4.47;;
76786;SDS011;65739;51.482;5.702;2023-04-25T03:13:53;13.25;;;4.18;;
76786;SDS011;65739;51.482;5.702;2023-04-25T03:16:19;19.52;;;4.25;;
76786;SDS011;65739;51.482;5.702;2023-04-25T03:18:44;15.55;;;4.80;;
76786;SDS011;65739;51.482;5.702;2023-04-25T03:21:10;14.15;;;4.35;;
76786;SDS011;65739;51.482;5.702;2023-04-25T03:23:35;19.38;;;5.18;;
76786;SDS011;65739;51.482;5.702;2023-04-25T03:26:01;19.13;;;5.05;;
76786;SDS011;65739;51.482;5.702;2023-04-25T03:28:26;19.90;;;4.93;;
76786;SDS011;65739;51.482;5.702;2023-04-25T03:30:52;27.70;;;5.05;;
76786;SDS011;65739;51.482;5.702;2023-04-25T03:33:19;14.82;;;4.28;;
76786;SDS011;65739;51.482;5.702;2023-04-25T03:35:44;22.27;;;5.18;;
76786;SDS011;65739;51.482;5.702;2023-04-25T03:38:10;20.45;;;4.60;;
76786;SDS011;65739;51.482;5.702;2023-04-25T03:40:36;20.45;;;5.47;;
76786;SDS011;65739;51.482;5.702;2023-04-25T03:43:01;21.90;;;4.75;;
76786;SDS011;65739;51.482;5.702;2023-04-25T03:45:27;16.98;;;4.80;;
76786;SDS011;65739;51.482;5.702;2023-04-25T03:47:52;13.55;;;4.60;;
76786;SDS011;65739;51.482;5.702;2023-04-25T03:50:18;19.42;;;4.82;;
76786;SDS011;65739;51.482;5.702;2023-04-25T03:52:43;19.63;;;4.78;;
76786;SDS011;65739;51.482;5.702;2023-04-25T03:55:09;20.90;;;4.40;;
76786;SDS011;65739;51.482;5.702;2023-04-25T03:57:35;22.25;;;5.07;;
76786;SDS011;65739;51.482;5.702;2023-04-25T04:00:00;19.58;;;4.40;;
76786;SDS011;65739;51.482;5.702;2023-04-25T04:02:26;25.13;;;5.18;;
76786;SDS011;65739;51.482;5.702;2023-04-25T04:04:51;19.23;;;4.93;;
76786;SDS011;65739;51.482;5.702;2023-04-25T04:07:17;14.05;;;5.07;;
76786;SDS011;65739;51.482;5.702;2023-04-25T04:09:42;14.38;;;4.70;;
76786;SDS011;65739;51.482;5.702;2023-04-25T04:12:08;23.25;;;5.25;;
76786;SDS011;65739;51.482;5.702;2023-04-25T04:14:34;19.25;;;5.07;;
76786;SDS011;65739;51.482;5.702;2023-04-25T04:16:59;16.55;;;4.90;;
76786;SDS011;65739;51.482;5.702;2023-04-25T04:19:25;22.67;;;4.80;;
76786;SDS011;65739;51.482;5.702;2023-04-25T04:21:50;14.68;;;4.68;;
76786;SDS011;65739;51.482;5.702;2023-04-25T04:24:16;25.33;;;5.70;;
76786;SDS011;65739;51.482;5.702;2023-04-25T04:26:42;18.15;;;4.25;;
76786;SDS011;65739;51.482;5.702;2023-04-25T04:29:09;24.13;;;5.18;;
76786;SDS011;65739;51.482;5.702;2023-04-25T04:31:35;18.83;;;4.75;;
76786;SDS011;65739;51.482;5.702;2023-04-25T04:34:01;16.95;;;4.82;;
76786;SDS011;65739;51.482;5.702;2023-04-25T04:36:28;18.23;;;4.85;;
76786;SDS011;65739;51.482;5.702;2023-04-25T04:38:54;15.63;;;4.88;;
76786;SDS011;65739;51.482;5.702;2023-04-25T04:41:21;15.80;;;5.00;;
76786;SDS011;65739;51.482;5.702;2023-04-25T04:43:47;16.70;;;4.80;;
76786;SDS011;65739;51.482;5.702;2023-04-25T04:46:12;24.80;;;5.22;;
76786;SDS011;65739;51.482;5.702;2023-04-25T04:48:38;15.48;;;4.70;;
76786;SDS011;65739;51.482;5.702;2023-04-25T04:51:05;27.73;;;4.80;;
76786;SDS011;65739;51.482;5.702;2023-04-25T04:53:31;20.02;;;5.65;;
76786;SDS011;65739;51.482;5.702;2023-04-25T04:55:57;15.63;;;4.78;;
76786;SDS011;65739;51.482;5.702;2023-04-25T04:58:22;25.85;;;4.25;;
76786;SDS011;65739;51.482;5.702;2023-04-25T05:00:48;16.08;;;4.55;;
76786;SDS011;65739;51.482;5.702;2023-04-25T05:03:13;23.23;;;4.50;;
76786;SDS011;65739;51.482;5.702;2023-04-25T05:05:39;16.50;;;4.97;;
76786;SDS011;65739;51.482;5.702;2023-04-25T05:08:07;15.15;;;4.07;;
76786;SDS011;65739;51.482;5.702;2023-04-25T05:10:33;18.83;;;4.47;;
76786;SDS011;65739;51.482;5.702;2023-04-25T05:12:58;18.33;;;4.80;;
76786;SDS011;65739;51.482;5.702;2023-04-25T05:15:24;16.75;;;4.63;;
76786;SDS011;65739;51.482;5.702;2023-04-25T05:17:49;14.30;;;3.88;;
76786;SDS011;65739;51.482;5.702;2023-04-25T05:20:15;11.88;;;3.70;;
76786;SDS011;65739;51.482;5.702;2023-04-25T05:22:41;19.08;;;3.92;;
76786;SDS011;65739;51.482;5.702;2023-04-25T05:25:07;19.60;;;4.55;;
76786;SDS011;65739;51.482;5.702;2023-04-25T05:27:33;16.17;;;3.63;;
76786;SDS011;65739;51.482;5.702;2023-04-25T05:29:59;16.55;;;4.22;;
76786;SDS011;65739;51.482;5.702;2023-04-25T05:32:25;17.10;;;3.45;;
76786;SDS011;65739;51.482;5.702;2023-04-25T05:34:51;14.73;;;3.92;;
76786;SDS011;65739;51.482;5.702;2023-04-25T05:37:17;18.00;;;4.00;;
76786;SDS011;65739;51.482;5.702;2023-04-25T05:39:42;14.77;;;3.42;;
76786;SDS011;65739;51.482;5.702;2023-04-25T05:42:08;21.17;;;4.65;;
76786;SDS011;65739;51.482;5.702;2023-04-25T05:44:33;14.18;;;3.60;;
76786;SDS011;65739;51.482;5.702;2023-04-25T05:46:59;14.63;;;3.65;;
76786;SDS011;65739;51.482;5.702;2023-04-25T05:49:25;24.45;;;4.38;;
76786;SDS011;65739;51.482;5.702;2023-04-25T05:51:50;15.15;;;4.00;;
76786;SDS011;65739;51.482;5.702;2023-04-25T05:54:16;14.40;;;3.08;;
76786;SDS011;65739;51.482;5.702;2023-04-25T05:56:42;20.13;;;4.00;;
76786;SDS011;65739;51.482;5.702;2023-04-25T05:59:07;18.23;;;3.40;;
76786;SDS011;65739;51.482;5.702;2023-04-25T06:01:33;13.93;;;3.75;;
76786;SDS011;65739;51.482;5.702;2023-04-25T06:03:58;17.35;;;3.67;;
76786;SDS011;65739;51.482;5.702;2023-04-25T06:06:24;15.55;;;3.38;;
76786;SDS011;65739;51.482;5.702;2023-04-25T06:08:51;24.13;;;5.80;;
76786;SDS011;65739;51.482;5.702;2023-04-25T06:11:17;15.43;;;2.95;;
76786;SDS011;65739;51.482;5.702;2023-04-25T06:13:42;13.77;;;4.30;;
76786;SDS011;65739;51.482;5.702;2023-04-25T06:16:08;14.25;;;4.55;;
76786;SDS011;65739;51.482;5.702;2023-04-25T06:18:33;17.90;;;3.47;;
76786;SDS011;65739;51.482;5.702;2023-04-25T06:20:59;9.85;;;2.80;;
76786;SDS011;65739;51.482;5.702;2023-04-25T06:23:24;15.70;;;3.15;;
76786;SDS011;65739;51.482;5.702;2023-04-25T06:25:50;13.73;;;3.30;;
76786;SDS011;65739;51.482;5.702;2023-04-25T06:28:15;13.60;;;3.70;;
76786;SDS011;65739;51.482;5.702;2023-04-25T06:30:41;15.60;;;3.25;;
76786;SDS011;65739;51.482;5.702;2023-04-25T06:33:06;12.88;;;2.95;;
76786;SDS011;65739;51.482;5.702;2023-04-25T06:35:33;10.35;;;2.60;;
76786;SDS011;65739;51.482;5.702;2023-04-25T06:37:59;10.60;;;2.40;;
76786;SDS011;65739;51.482;5.702;2023-04-25T06:40:24;12.65;;;2.83;;
76786;SDS011;65739;51.482;5.702;2023-04-25T06:42:50;11.20;;;2.53;;
76786;SDS011;65739;51.482;5.702;2023-04-25T06:45:16;12.85;;;2.65;;
76786;SDS011;65739;51.482;5.702;2023-04-25T06:47:41;11.32;;;2.13;;
76786;SDS011;65739;51.482;5.702;2023-04-25T06:50:07;10.10;;;2.45;;
76786;SDS011;65739;51.482;5.702;2023-04-25T06:52:33;7.22;;;2.15;;
76786;SDS011;65739;51.482;5.702;2023-04-25T06:54:58;9.68;;;2.50;;
76786;SDS011;65739;51.482;5.702;2023-04-25T06:57:24;12.70;;;2.40;;
76786;SDS011;65739;51.482;5.702;2023-04-25T06:59:49;8.32;;;2.28;;
76786;SDS011;65739;51.482;5.702;2023-04-25T07:02:15;11.00;;;2.55;;
76786;SDS011;65739;51.482;5.702;2023-04-25T07:04:40;10.93;;;2.78;;
76786;SDS011;65739;51.482;5.702;2023-04-25T07:07:06;8.10;;;2.28;;
76786;SDS011;65739;51.482;5.702;2023-04-25T07:09:31;9.30;;;2.35;;
76786;SDS011;65739;51.482;5.702;2023-04-25T07:11:58;11.25;;;2.58;;
76786;SDS011;65739;51.482;5.702;2023-04-25T07:14:26;10.70;;;2.20;;
76786;SDS011;65739;51.482;5.702;2023-04-25T07:16:51;11.57;;;1.90;;
76786;SDS011;65739;51.482;5.702;2023-04-25T07:19:17;8.23;;;2.10;;
76786;SDS011;65739;51.482;5.702;2023-04-25T07:21:42;9.63;;;2.17;;
76786;SDS011;65739;51.482;5.702;2023-04-25T07:24:08;12.75;;;2.55;;
76786;SDS011;65739;51.482;5.702;2023-04-25T07:26:33;11.57;;;2.20;;
76786;SDS011;65739;51.482;5.702;2023-04-25T07:28:59;15.40;;;2.38;;
76786;SDS011;65739;51.482;5.702;2023-04-25T07:31:24;13.82;;;2.25;;
76786;SDS011;65739;51.482;5.702;2023-04-25T07:33:50;8.82;;;2.05;;
76786;SDS011;65739;51.482;5.702;2023-04-25T07:36:16;4.28;;;1.70;;
76786;SDS011;65739;51.482;5.702;2023-04-25T07:38:41;11.30;;;2.00;;
76786;SDS011;65739;51.482;5.702;2023-04-25T07:41:07;6.15;;;1.75;;
76786;SDS011;65739;51.482;5.702;2023-04-25T07:43:32;7.07;;;2.03;;
76786;SDS011;65739;51.482;5.702;2023-04-25T07:45:58;10.68;;;1.85;;
76786;SDS011;65739;51.482;5.702;2023-04-25T07:48:23;6.45;;;1.77;;
76786;SDS011;65739;51.482;5.702;2023-04-25T07:50:49;6.47;;;1.85;;
76786;SDS011;65739;51.482;5.702;2023-04-25T07:53:15;7.57;;;1.40;;
76786;SDS011;65739;51.482;5.702;2023-04-25T07:55:42;8.32;;;1.75;;
76786;SDS011;65739;51.482;5.702;2023-04-25T07:58:08;6.75;;;1.77;;
76786;SDS011;65739;51.482;5.702;2023-04-25T08:00:35;6.68;;;2.25;;
76786;SDS011;65739;51.482;5.702;2023-04-25T08:03:00;9.05;;;2.13;;
76786;SDS011;65739;51.482;5.702;2023-04-25T08:05:26;11.07;;;1.77;;
76786;SDS011;65739;51.482;5.702;2023-04-25T08:07:51;8.02;;;1.65;;
76786;SDS011;65739;51.482;5.702;2023-04-25T08:10:17;8.95;;;1.85;;
76786;SDS011;65739;51.482;5.702;2023-04-25T08:12:43;6.97;;;1.48;;
76786;SDS011;65739;51.482;5.702;2023-04-25T08:15:08;7.95;;;1.73;;
76786;SDS011;65739;51.482;5.702;2023-04-25T08:17:34;8.77;;;1.90;;
76786;SDS011;65739;51.482;5.702;2023-04-25T08:20:00;9.82;;;1.85;;
76786;SDS011;65739;51.482;5.702;2023-04-25T08:22:25;11.18;;;1.60;;
76786;SDS011;65739;51.482;5.702;2023-04-25T08:24:51;5.80;;;1.67;;
76786;SDS011;65739;51.482;5.702;2023-04-25T08:27:17;6.03;;;1.38;;
76786;SDS011;65739;51.482;5.702;2023-04-25T08:29:43;8.02;;;1.42;;
76786;SDS011;65739;51.482;5.702;2023-04-25T08:32:09;11.60;;;1.80;;
76786;SDS011;65739;51.482;5.702;2023-04-25T08:34:34;5.32;;;1.80;;
76786;SDS011;65739;51.482;5.702;2023-04-25T08:37:01;6.93;;;1.70;;
76786;SDS011;65739;51.482;5.702;2023-04-25T08:39:29;4.60;;;1.38;;
76786;SDS011;65739;51.482;5.702;2023-04-25T08:41:54;4.60;;;1.48;;
76786;SDS011;65739;51.482;5.702;2023-04-25T08:44:21;7.57;;;1.60;;
76786;SDS011;65739;51.482;5.702;2023-04-25T08:46:48;9.65;;;1.80;;
76786;SDS011;65739;51.482;5.702;2023-04-25T08:49:14;13.05;;;1.83;;
76786;SDS011;65739;51.482;5.702;2023-04-25T08:51:44;4.95;;;1.38;;
76786;SDS011;65739;51.482;5.702;2023-04-25T08:54:15;6.93;;;1.67;;
76786;SDS011;65739;51.482;5.702;2023-04-25T08:56:43;3.95;;;1.13;;
76786;SDS011;65739;51.482;5.702;2023-04-25T08:59:11;5.47;;;1.33;;
76786;SDS011;65739;51.482;5.702;2023-04-25T09:01:37;6.40;;;1.17;;
76786;SDS011;65739;51.482;5.702;2023-04-25T09:04:02;9.90;;;1.75;;
76786;SDS011;65739;51.482;5.702;2023-04-25T09:06:28;8.13;;;1.70;;
76786;SDS011;65739;51.482;5.702;2023-04-25T09:09:00;7.32;;;1.45;;
76786;SDS011;65739;51.482;5.702;2023-04-25T09:11:34;7.47;;;1.70;;
76786;SDS011;65739;51.482;5.702;2023-04-25T09:14:20;8.95;;;1.45;;
76786;SDS011;65739;51.482;5.702;2023-04-25T09:19:22;9.60;;;1.67;;
76786;SDS011;65739;51.482;5.702;2023-04-25T09:21:51;8.63;;;1.85;;
76786;SDS011;65739;51.482;5.702;2023-04-25T09:24:29;6.22;;;1.70;;
76786;SDS011;65739;51.482;5.702;2023-04-25T09:26:56;7.13;;;1.58;;
76786;SDS011;65739;51.482;5.702;2023-04-25T09:29:28;5.35;;;1.60;;
76786;SDS011;65739;51.482;5.702;2023-04-25T09:32:17;6.45;;;1.42;;
76786;SDS011;65739;51.482;5.702;2023-04-25T09:34:56;9.50;;;1.30;;
76786;SDS011;65739;51.482;5.702;2023-04-25T09:37:23;6.78;;;1.50;;
76786;SDS011;65739;51.482;5.702;2023-04-25T09:39:51;9.32;;;1.73;;
76786;SDS011;65739;51.482;5.702;2023-04-25T09:42:21;10.20;;;1.77;;
76786;SDS011;65739;51.482;5.702;2023-04-25T09:44:48;11.88;;;1.98;;
76786;SDS011;65739;51.482;5.702;2023-04-25T09:47:17;10.32;;;1.42;;
76786;SDS011;65739;51.482;5.702;2023-04-25T09:49:42;9.30;;;1.42;;
76786;SDS011;65739;51.482;5.702;2023-04-25T09:52:09;5.60;;;1.77;;
76786;SDS011;65739;51.482;5.702;2023-04-25T09:54:38;7.80;;;1.88;;
76786;SDS011;65739;51.482;5.702;2023-04-25T09:57:08;6.65;;;1.20;;
76786;SDS011;65739;51.482;5.702;2023-04-25T09:59:38;5.82;;;1.35;;
76786;SDS011;65739;51.482;5.702;2023-04-25T10:02:06;3.67;;;0.70;;
76786;SDS011;65739;51.482;5.702;2023-04-25T10:04:33;3.17;;;0.90;;
76786;SDS011;65739;51.482;5.702;2023-04-25T10:07:00;2.92;;;0.70;;
76786;SDS011;65739;51.482;5.702;2023-04-25T10:09:28;3.03;;;0.65;;
76786;SDS011;65739;51.482;5.702;2023-04-25T10:11:58;3.53;;;0.60;;
76786;SDS011;65739;51.482;5.702;2023-04-25T10:14:25;4.90;;;0.95;;
76786;SDS011;65739;51.482;5.702;2023-04-25T10:16:51;1.33;;;0.80;;
76786;SDS011;65739;51.482;5.702;2023-04-25T10:19:19;4.47;;;0.98;;
76786;SDS011;65739;51.482;5.702;2023-04-25T10:21:50;6.05;;;1.00;;
76786;SDS011;65739;51.482;5.702;2023-04-25T10:24:39;1.67;;;0.60;;
76786;SDS011;65739;51.482;5.702;2023-04-25T10:27:06;3.67;;;1.10;;
76786;SDS011;65739;51.482;5.702;2023-04-25T10:29:32;7.25;;;1.10;;
76786;SDS011;65739;51.482;5.702;2023-04-25T10:31:57;1.45;;;0.80;;
76786;SDS011;65739;51.482;5.702;2023-04-25T10:34:24;2.17;;;0.80;;
76786;SDS011;65739;51.482;5.702;2023-04-25T10:37:02;4.93;;;0.90;;
76786;SDS011;65739;51.482;5.702;2023-04-25T10:39:28;4.32;;;0.95;;
76786;SDS011;65739;51.482;5.702;2023-04-25T10:41:57;1.25;;;0.75;;
76786;SDS011;65739;51.482;5.702;2023-04-25T10:44:27;2.88;;;0.90;;
76786;SDS011;65739;51.482;5.702;2023-04-25T10:46:57;3.40;;;0.60;;
76786;SDS011;65739;51.482;5.702;2023-04-25T10:49:31;1.48;;;0.73;;
76786;SDS011;65739;51.482;5.702;2023-04-25T10:54:54;5.10;;;0.98;;
76786;SDS011;65739;51.482;5.702;2023-04-25T10:57:40;5.38;;;0.98;;
76786;SDS011;65739;51.482;5.702;2023-04-25T11:02:52;6.28;;;1.20;;
76786;SDS011;65739;51.482;5.702;2023-04-25T11:05:19;3.10;;;1.13;;
76786;SDS011;65739;51.482;5.702;2023-04-25T11:07:52;3.97;;;1.02;;
76786;SDS011;65739;51.482;5.702;2023-04-25T11:10:28;6.53;;;1.42;;
76786;SDS011;65739;51.482;5.702;2023-04-25T11:12:55;4.53;;;0.98;;
76786;SDS011;65739;51.482;5.702;2023-04-25T11:15:21;4.90;;;1.00;;
76786;SDS011;65739;51.482;5.702;2023-04-25T11:17:47;5.93;;;1.20;;
76786;SDS011;65739;51.482;5.702;2023-04-25T11:20:13;2.70;;;1.02;;
76786;SDS011;65739;51.482;5.702;2023-04-25T11:22:40;4.82;;;1.23;;
76786;SDS011;65739;51.482;5.702;2023-04-25T11:25:06;5.03;;;1.25;;
76786;SDS011;65739;51.482;5.702;2023-04-25T11:27:33;6.30;;;1.35;;
76786;SDS011;65739;51.482;5.702;2023-04-25T11:30:12;5.75;;;1.20;;
76786;SDS011;65739;51.482;5.702;2023-04-25T11:32:39;8.70;;;1.33;;
76786;SDS011;65739;51.482;5.702;2023-04-25T11:35:06;7.18;;;1.30;;
76786;SDS011;65739;51.482;5.702;2023-04-25T11:37:32;3.83;;;1.10;;
76786;SDS011;65739;51.482;5.702;2023-04-25T11:39:59;6.35;;;1.33;;
76786;SDS011;65739;51.482;5.702;2023-04-25T11:42:25;4.95;;;1.17;;
76786;SDS011;65739;51.482;5.702;2023-04-25T11:44:50;5.90;;;1.15;;
76786;SDS011;65739;51.482;5.702;2023-04-25T11:47:16;4.80;;;1.45;;
76786;SDS011;65739;51.482;5.702;2023-04-25T11:49:42;6.60;;;1.20;;
76786;SDS011;65739;51.482;5.702;2023-04-25T11:52:07;4.95;;;1.27;;
76786;SDS011;65739;51.482;5.702;2023-04-25T11:54:36;3.67;;;0.98;;
76786;SDS011;65739;51.482;5.702;2023-04-25T11:57:03;3.67;;;1.10;;
76786;SDS011;65739;51.482;5.702;2023-04-25T11:59:29;2.78;;;0.90;;
76786;SDS011;65739;51.482;5.702;2023-04-25T12:01:55;7.25;;;1.55;;
76786;SDS011;65739;51.482;5.702;2023-04-25T12:04:22;5.72;;;1.85;;
76786;SDS011;65739;51.482;5.702;2023-04-25T12:06:50;5.95;;;1.20;;
76786;SDS011;65739;51.482;5.702;2023-04-25T12:09:18;4.53;;;1.40;;
76786;SDS011;65739;51.482;5.702;2023-04-25T12:11:52;6.22;;;1.30;;
76786;SDS011;65739;51.482;5.702;2023-04-25T12:14:21;6.38;;;1.42;;
76786;SDS011;65739;51.482;5.702;2023-04-25T12:16:49;3.92;;;1.20;;
76786;SDS011;65739;51.482;5.702;2023-04-25T12:19:16;5.03;;;1.17;;
76786;SDS011;65739;51.482;5.702;2023-04-25T12:21:43;5.47;;;1.17;;
76786;SDS011;65739;51.482;5.702;2023-04-25T12:24:44;4.28;;;1.02;;
76786;SDS011;65739;51.482;5.702;2023-04-25T12:27:03;5.57;;;1.00;;
76786;SDS011;65739;51.482;5.702;2023-04-25T12:29:30;3.33;;;0.80;;
76786;SDS011;65739;51.482;5.702;2023-04-25T12:31:57;2.88;;;0.70;;
76786;SDS011;65739;51.482;5.702;2023-04-25T12:34:23;3.15;;;0.70;;
76786;SDS011;65739;51.482;5.702;2023-04-25T12:36:50;4.35;;;0.70;;
76786;SDS011;65739;51.482;5.702;2023-04-25T12:39:22;1.92;;;0.60;;
76786;SDS011;65739;51.482;5.702;2023-04-25T12:41:49;5.82;;;0.82;;
76786;SDS011;65739;51.482;5.702;2023-04-25T12:44:21;2.17;;;0.70;;
76786;SDS011;65739;51.482;5.702;2023-04-25T12:46:47;7.25;;;1.10;;
76786;SDS011;65739;51.482;5.702;2023-04-25T12:49:13;3.78;;;0.80;;
76786;SDS011;65739;51.482;5.702;2023-04-25T12:51:39;2.15;;;0.70;;
76786;SDS011;65739;51.482;5.702;2023-04-25T12:54:05;3.70;;;0.77;;
76786;SDS011;65739;51.482;5.702;2023-04-25T12:56:34;3.15;;;0.57;;
76786;SDS011;65739;51.482;5.702;2023-04-25T12:59:00;3.47;;;0.70;;
76786;SDS011;65739;51.482;5.702;2023-04-25T13:01:25;5.10;;;0.80;;
76786;SDS011;65739;51.482;5.702;2023-04-25T13:03:51;3.78;;;0.70;;
76786;SDS011;65739;51.482;5.702;2023-04-25T13:06:18;3.08;;;0.60;;
76786;SDS011;65739;51.482;5.702;2023-04-25T13:08:44;1.00;;;0.60;;
76786;SDS011;65739;51.482;5.702;2023-04-25T13:11:10;1.90;;;0.40;;
76786;SDS011;65739;51.482;5.702;2023-04-25T13:13:36;1.80;;;0.70;;
76786;SDS011;65739;51.482;5.702;2023-04-25T13:16:02;6.93;;;0.60;;
76786;SDS011;65739;51.482;5.702;2023-04-25T13:18:29;1.85;;;0.40;;
76786;SDS011;65739;51.482;5.702;2023-04-25T13:20:55;3.22;;;0.70;;
76786;SDS011;65739;51.482;5.702;2023-04-25T13:23:22;1.38;;;0.70;;
76786;SDS011;65739;51.482;5.702;2023-04-25T13:25:48;6.43;;;1.05;;
76786;SDS011;65739;51.482;5.702;2023-04-25T13:28:14;4.65;;;0.93;;
76786;SDS011;65739;51.482;5.702;2023-04-25T13:30:40;5.80;;;1.10;;
76786;SDS011;65739;51.482;5.702;2023-04-25T13:33:05;5.75;;;0.90;;
76786;SDS011;65739;51.482;5.702;2023-04-25T13:35:31;5.65;;;1.10;;
76786;SDS011;65739;51.482;5.702;2023-04-25T13:37:58;4.95;;;1.05;;
76786;SDS011;65739;51.482;5.702;2023-04-25T13:40:24;7.43;;;1.13;;
76786;SDS011;65739;51.482;5.702;2023-04-25T13:42:50;4.93;;;1.02;;
76786;SDS011;65739;51.482;5.702;2023-04-25T13:45:16;4.15;;;0.73;;
76786;SDS011;65739;51.482;5.702;2023-04-25T13:47:41;4.20;;;0.90;;
76786;SDS011;65739;51.482;5.702;2023-04-25T13:50:07;5.25;;;1.35;;
76786;SDS011;65739;51.482;5.702;2023-04-25T13:52:33;3.42;;;0.93;;
76786;SDS011;65739;51.482;5.702;2023-04-25T13:54:59;3.22;;;0.93;;
76786;SDS011;65739;51.482;5.702;2023-04-25T13:57:25;5.22;;;0.90;;
76786;SDS011;65739;51.482;5.702;2023-04-25T13:59:51;4.80;;;0.73;;
76786;SDS011;65739;51.482;5.702;2023-04-25T14:02:17;3.60;;;0.77;;
76786;SDS011;65739;51.482;5.702;2023-04-25T14:04:43;6.60;;;0.82;;
76786;SDS011;65739;51.482;5.702;2023-04-25T14:07:08;4.35;;;0.88;;
76786;SDS011;65739;51.482;5.702;2023-04-25T14:09:35;2.00;;;0.63;;
76786;SDS011;65739;51.482;5.702;2023-04-25T14:12:01;5.53;;;1.08;;
76786;SDS011;65739;51.482;5.702;2023-04-25T14:14:27;6.40;;;0.95;;
76786;SDS011;65739;51.482;5.702;2023-04-25T14:16:53;6.90;;;1.15;;
76786;SDS011;65739;51.482;5.702;2023-04-25T14:19:19;4.75;;;1.00;;
76786;SDS011;65739;51.482;5.702;2023-04-25T14:21:48;5.80;;;1.02;;
76786;SDS011;65739;51.482;5.702;2023-04-25T14:24:14;6.15;;;1.20;;
76786;SDS011;65739;51.482;5.702;2023-04-25T14:26:39;7.85;;;1.42;;
76786;SDS011;65739;51.482;5.702;2023-04-25T14:29:06;5.78;;;1.20;;
76786;SDS011;65739;51.482;5.702;2023-04-25T14:31:32;7.53;;;1.33;;
76786;SDS011;65739;51.482;5.702;2023-04-25T14:33:58;3.22;;;1.15;;
76786;SDS011;65739;51.482;5.702;2023-04-25T14:36:24;5.25;;;1.40;;
76786;SDS011;65739;51.482;5.702;2023-04-25T14:38:51;7.63;;;1.30;;
76786;SDS011;65739;51.482;5.702;2023-04-25T14:41:17;6.15;;;1.10;;
76786;SDS011;65739;51.482;5.702;2023-04-25T14:43:42;4.53;;;1.33;;
76786;SDS011;65739;51.482;5.702;2023-04-25T14:46:08;1.60;;;0.73;;